sensor_id;sensor_type;location;lat;lon;timestamp;P1;durP1;ratioP1;P2;durP2;ratioP2
3329;SDS011;1677;49.576;10.990;2023-01-01T00:02:03;171.67;;;121.20;;
3329;SDS011;1677;49.576;10.990;2023-01-01T00:04:29;194.63;;;135.33;;
3329;SDS011;1677;49.576;10.990;2023-01-01T00:06:55;206.07;;;135.33;;
3329;SDS011;1677;49.576;10.990;2023-01-01T00:09:21;212.80;;;148.50;;
3329;SDS011;1677;49.576;10.990;2023-01-01T00:12:05;233.50;;;154.13;;
3329;SDS011;1677;49.576;10.990;2023-01-01T00:14:31;228.80;;;164.63;;
3329;SDS011;1677;49.576;10.990;2023-01-01T00:16:56;258.87;;;171.43;;
3329;SDS011;1677;49.576;10.990;2023-01-01T00:19:22;259.70;;;176.83;;
3329;SDS011;1677;49.576;10.990;2023-01-01T00:21:47;261.23;;;183.70;;
3329;SDS011;1677;49.576;10.990;2023-01-01T00:24:13;273.23;;;187.23;;
3329;SDS011;1677;49.576;10.990;2023-01-01T00:26:38;265.90;;;182.73;;
3329;SDS011;1677;49.576;10.990;2023-01-01T00:29:04;270.33;;;180.30;;
3329;SDS011;1677;49.576;10.990;2023-01-01T00:31:30;281.57;;;194.97;;
3329;SDS011;1677;49.576;10.990;2023-01-01T00:33:56;273.13;;;202.03;;
3329;SDS011;1677;49.576;10.990;2023-01-01T00:36:23;235.97;;;165.60;;
3329;SDS011;1677;49.576;10.990;2023-01-01T00:38:50;238.20;;;154.87;;
3329;SDS011;1677;49.576;10.990;2023-01-01T00:41:16;182.50;;;122.73;;
3329;SDS011;1677;49.576;10.990;2023-01-01T00:43:42;186.37;;;132.50;;
3329;SDS011;1677;49.576;10.990;2023-01-01T00:46:08;168.43;;;116.27;;
3329;SDS011;1677;49.576;10.990;2023-01-01T00:48:34;192.03;;;138.13;;
3329;SDS011;1677;49.576;10.990;2023-01-01T00:51:00;180.50;;;123.67;;
3329;SDS011;1677;49.576;10.990;2023-01-01T00:53:26;166.80;;;124.90;;
3329;SDS011;1677;49.576;10.990;2023-01-01T00:55:51;183.57;;;126.23;;
3329;SDS011;1677;49.576;10.990;2023-01-01T00:58:19;161.00;;;115.83;;
3329;SDS011;1677;49.576;10.990;2023-01-01T01:00:44;170.20;;;108.50;;
3329;SDS011;1677;49.576;10.990;2023-01-01T01:03:11;148.47;;;104.90;;
3329;SDS011;1677;49.576;10.990;2023-01-01T01:05:52;135.97;;;94.83;;
3329;SDS011;1677;49.576;10.990;2023-01-01T01:08:22;129.17;;;93.83;;
3329;SDS011;1677;49.576;10.990;2023-01-01T01:10:48;121.13;;;87.97;;
3329;SDS011;1677;49.576;10.990;2023-01-01T01:13:13;118.87;;;79.70;;
3329;SDS011;1677;49.576;10.990;2023-01-01T01:15:39;120.93;;;85.57;;
3329;SDS011;1677;49.576;10.990;2023-01-01T01:18:05;118.03;;;82.47;;
3329;SDS011;1677;49.576;10.990;2023-01-01T01:20:30;121.63;;;79.00;;
3329;SDS011;1677;49.576;10.990;2023-01-01T01:22:56;100.50;;;74.60;;
3329;SDS011;1677;49.576;10.990;2023-01-01T01:25:21;105.47;;;72.63;;
3329;SDS011;1677;49.576;10.990;2023-01-01T01:27:47;102.53;;;67.83;;
3329;SDS011;1677;49.576;10.990;2023-01-01T01:30:12;95.60;;;66.30;;
3329;SDS011;1677;49.576;10.990;2023-01-01T01:32:38;101.03;;;64.93;;
3329;SDS011;1677;49.576;10.990;2023-01-01T01:35:04;89.30;;;63.40;;
3329;SDS011;1677;49.576;10.990;2023-01-01T01:37:29;89.07;;;64.13;;
3329;SDS011;1677;49.576;10.990;2023-01-01T01:39:55;91.20;;;64.87;;
3329;SDS011;1677;49.576;10.990;2023-01-01T01:42:21;76.17;;;53.57;;
3329;SDS011;1677;49.576;10.990;2023-01-01T01:50:10;57.67;;;43.87;;
3329;SDS011;1677;49.576;10.990;2023-01-01T01:52:59;73.30;;;46.70;;
3329;SDS011;1677;49.576;10.990;2023-01-01T01:55:31;77.37;;;52.47;;
3329;SDS011;1677;49.576;10.990;2023-01-01T01:58:00;53.60;;;40.60;;
3329;SDS011;1677;49.576;10.990;2023-01-01T02:00:27;59.53;;;42.93;;
3329;SDS011;1677;49.576;10.990;2023-01-01T02:05:44;46.03;;;33.13;;
3329;SDS011;1677;49.576;10.990;2023-01-01T02:08:10;51.42;;;36.45;;
3329;SDS011;1677;49.576;10.990;2023-01-01T02:10:38;46.00;;;32.30;;
3329;SDS011;1677;49.576;10.990;2023-01-01T02:13:04;47.97;;;34.33;;
3329;SDS011;1677;49.576;10.990;2023-01-01T02:15:32;45.20;;;29.80;;
3329;SDS011;1677;49.576;10.990;2023-01-01T02:18:04;40.30;;;29.75;;
3329;SDS011;1677;49.576;10.990;2023-01-01T02:29:18;40.50;;;27.80;;
3329;SDS011;1677;49.576;10.990;2023-01-01T02:31:57;31.83;;;24.23;;
3329;SDS011;1677;49.576;10.990;2023-01-01T02:34:26;30.92;;;22.67;;
3329;SDS011;1677;49.576;10.990;2023-01-01T02:36:56;29.25;;;22.85;;
3329;SDS011;1677;49.576;10.990;2023-01-01T02:39:25;34.28;;;24.42;;
3329;SDS011;1677;49.576;10.990;2023-01-01T02:41:55;30.27;;;21.83;;
3329;SDS011;1677;49.576;10.990;2023-01-01T02:44:23;28.88;;;20.75;;
3329;SDS011;1677;49.576;10.990;2023-01-01T02:46:51;28.73;;;21.15;;
3329;SDS011;1677;49.576;10.990;2023-01-01T02:49:16;31.37;;;21.10;;
3329;SDS011;1677;49.576;10.990;2023-01-01T02:57:31;26.92;;;19.73;;
3329;SDS011;1677;49.576;10.990;2023-01-01T03:00:05;26.75;;;19.20;;
3329;SDS011;1677;49.576;10.990;2023-01-01T03:05:33;32.30;;;20.83;;
3329;SDS011;1677;49.576;10.990;2023-01-01T03:08:32;32.13;;;21.83;;
3329;SDS011;1677;49.576;10.990;2023-01-01T03:11:22;25.08;;;19.27;;
3329;SDS011;1677;49.576;10.990;2023-01-01T03:16:46;29.20;;;21.27;;
3329;SDS011;1677;49.576;10.990;2023-01-01T03:19:19;29.67;;;22.00;;
3329;SDS011;1677;49.576;10.990;2023-01-01T03:21:57;28.92;;;20.27;;
3329;SDS011;1677;49.576;10.990;2023-01-01T03:24:39;29.73;;;21.00;;
3329;SDS011;1677;49.576;10.990;2023-01-01T03:27:07;29.65;;;21.27;;
3329;SDS011;1677;49.576;10.990;2023-01-01T03:29:40;27.65;;;19.60;;
3329;SDS011;1677;49.576;10.990;2023-01-01T03:32:07;28.13;;;19.88;;
3329;SDS011;1677;49.576;10.990;2023-01-01T03:34:39;31.83;;;20.80;;
3329;SDS011;1677;49.576;10.990;2023-01-01T03:37:12;29.65;;;21.52;;
3329;SDS011;1677;49.576;10.990;2023-01-01T03:39:47;28.75;;;20.58;;
3329;SDS011;1677;49.576;10.990;2023-01-01T03:42:30;29.80;;;20.35;;
3329;SDS011;1677;49.576;10.990;2023-01-01T03:45:04;26.08;;;19.23;;
3329;SDS011;1677;49.576;10.990;2023-01-01T03:47:34;22.65;;;17.63;;
3329;SDS011;1677;49.576;10.990;2023-01-01T03:50:00;25.20;;;17.33;;
3329;SDS011;1677;49.576;10.990;2023-01-01T03:52:40;23.08;;;17.67;;
3329;SDS011;1677;49.576;10.990;2023-01-01T03:55:18;27.98;;;17.90;;
3329;SDS011;1677;49.576;10.990;2023-01-01T03:58:09;23.27;;;16.98;;
3329;SDS011;1677;49.576;10.990;2023-01-01T04:01:08;22.88;;;15.30;;
3329;SDS011;1677;49.576;10.990;2023-01-01T04:03:38;21.33;;;15.60;;
3329;SDS011;1677;49.576;10.990;2023-01-01T04:06:05;24.10;;;17.75;;
3329;SDS011;1677;49.576;10.990;2023-01-01T04:08:32;21.53;;;16.90;;
3329;SDS011;1677;49.576;10.990;2023-01-01T04:10:59;20.70;;;16.10;;
3329;SDS011;1677;49.576;10.990;2023-01-01T04:13:47;19.87;;;16.40;;
3329;SDS011;1677;49.576;10.990;2023-01-01T04:16:13;18.60;;;15.30;;
3329;SDS011;1677;49.576;10.990;2023-01-01T04:18:39;20.47;;;16.33;;
3329;SDS011;1677;49.576;10.990;2023-01-01T04:21:04;22.37;;;14.90;;
3329;SDS011;1677;49.576;10.990;2023-01-01T04:23:30;18.60;;;14.80;;
3329;SDS011;1677;49.576;10.990;2023-01-01T04:25:55;22.53;;;16.10;;
3329;SDS011;1677;49.576;10.990;2023-01-01T04:28:21;20.20;;;14.50;;
3329;SDS011;1677;49.576;10.990;2023-01-01T04:30:46;21.00;;;14.73;;
3329;SDS011;1677;49.576;10.990;2023-01-01T04:33:12;16.37;;;14.47;;
3329;SDS011;1677;49.576;10.990;2023-01-01T04:35:38;20.00;;;13.83;;
3329;SDS011;1677;49.576;10.990;2023-01-01T04:38:03;19.40;;;14.97;;
3329;SDS011;1677;49.576;10.990;2023-01-01T04:40:29;21.50;;;15.50;;
3329;SDS011;1677;49.576;10.990;2023-01-01T04:42:54;16.23;;;14.50;;
3329;SDS011;1677;49.576;10.990;2023-01-01T04:45:20;19.57;;;15.07;;
3329;SDS011;1677;49.576;10.990;2023-01-01T04:47:45;21.43;;;14.07;;
3329;SDS011;1677;49.576;10.990;2023-01-01T04:50:11;17.60;;;13.87;;
3329;SDS011;1677;49.576;10.990;2023-01-01T04:52:36;17.70;;;13.07;;
3329;SDS011;1677;49.576;10.990;2023-01-01T04:55:02;19.93;;;13.77;;
3329;SDS011;1677;49.576;10.990;2023-01-01T04:57:28;15.53;;;11.80;;
3329;SDS011;1677;49.576;10.990;2023-01-01T04:59:54;18.45;;;11.82;;
3329;SDS011;1677;49.576;10.990;2023-01-01T05:02:20;15.53;;;11.47;;
3329;SDS011;1677;49.576;10.990;2023-01-01T05:04:45;18.67;;;12.20;;
3329;SDS011;1677;49.576;10.990;2023-01-01T05:07:11;14.30;;;11.40;;
3329;SDS011;1677;49.576;10.990;2023-01-01T05:09:36;12.63;;;10.33;;
3329;SDS011;1677;49.576;10.990;2023-01-01T05:12:02;15.30;;;10.50;;
3329;SDS011;1677;49.576;10.990;2023-01-01T05:14:28;14.60;;;11.90;;
3329;SDS011;1677;49.576;10.990;2023-01-01T05:16:53;15.90;;;12.10;;
3329;SDS011;1677;49.576;10.990;2023-01-01T05:19:19;15.00;;;10.93;;
3329;SDS011;1677;49.576;10.990;2023-01-01T05:21:44;13.67;;;10.70;;
3329;SDS011;1677;49.576;10.990;2023-01-01T05:24:10;17.13;;;10.17;;
3329;SDS011;1677;49.576;10.990;2023-01-01T05:26:37;13.90;;;11.00;;
3329;SDS011;1677;49.576;10.990;2023-01-01T05:29:05;12.25;;;9.82;;
3329;SDS011;1677;49.576;10.990;2023-01-01T05:31:32;12.27;;;8.57;;
3329;SDS011;1677;49.576;10.990;2023-01-01T05:34:00;13.98;;;9.07;;
3329;SDS011;1677;49.576;10.990;2023-01-01T05:36:28;10.15;;;7.80;;
3329;SDS011;1677;49.576;10.990;2023-01-01T05:38:56;10.68;;;7.25;;
3329;SDS011;1677;49.576;10.990;2023-01-01T05:41:22;9.90;;;7.75;;
3329;SDS011;1677;49.576;10.990;2023-01-01T05:43:48;12.97;;;8.67;;
3329;SDS011;1677;49.576;10.990;2023-01-01T05:46:21;10.60;;;8.60;;
3329;SDS011;1677;49.576;10.990;2023-01-01T05:48:49;8.20;;;7.40;;
3329;SDS011;1677;49.576;10.990;2023-01-01T05:51:17;13.05;;;9.50;;
3329;SDS011;1677;49.576;10.990;2023-01-01T05:53:52;12.20;;;8.88;;
3329;SDS011;1677;49.576;10.990;2023-01-01T05:56:18;12.27;;;9.10;;
3329;SDS011;1677;49.576;10.990;2023-01-01T05:58:43;14.83;;;9.00;;
3329;SDS011;1677;49.576;10.990;2023-01-01T06:01:11;10.50;;;8.37;;
3329;SDS011;1677;49.576;10.990;2023-01-01T06:03:38;11.50;;;7.65;;
3329;SDS011;1677;49.576;10.990;2023-01-01T06:06:05;11.63;;;8.60;;
3329;SDS011;1677;49.576;10.990;2023-01-01T06:08:39;8.27;;;7.07;;
3329;SDS011;1677;49.576;10.990;2023-01-01T06:11:06;8.83;;;7.13;;
3329;SDS011;1677;49.576;10.990;2023-01-01T06:13:33;9.43;;;7.78;;
3329;SDS011;1677;49.576;10.990;2023-01-01T06:15:59;11.07;;;7.70;;
3329;SDS011;1677;49.576;10.990;2023-01-01T06:18:28;9.73;;;6.80;;
3329;SDS011;1677;49.576;10.990;2023-01-01T06:20:55;10.68;;;6.60;;
3329;SDS011;1677;49.576;10.990;2023-01-01T06:23:31;8.93;;;6.60;;
3329;SDS011;1677;49.576;10.990;2023-01-01T06:25:56;10.27;;;6.30;;
3329;SDS011;1677;49.576;10.990;2023-01-01T06:28:47;9.43;;;5.80;;
3329;SDS011;1677;49.576;10.990;2023-01-01T06:31:14;7.97;;;6.28;;
3329;SDS011;1677;49.576;10.990;2023-01-01T06:33:41;7.22;;;5.70;;
3329;SDS011;1677;49.576;10.990;2023-01-01T06:36:08;7.22;;;6.03;;
3329;SDS011;1677;49.576;10.990;2023-01-01T06:38:36;7.97;;;5.20;;
3329;SDS011;1677;49.576;10.990;2023-01-01T06:41:04;9.00;;;5.88;;
3329;SDS011;1677;49.576;10.990;2023-01-01T06:43:33;9.70;;;6.35;;
3329;SDS011;1677;49.576;10.990;2023-01-01T06:46:03;8.60;;;6.25;;
3329;SDS011;1677;49.576;10.990;2023-01-01T06:48:32;6.78;;;5.30;;
3329;SDS011;1677;49.576;10.990;2023-01-01T06:51:03;8.15;;;5.38;;
3329;SDS011;1677;49.576;10.990;2023-01-01T06:53:31;9.13;;;5.00;;
3329;SDS011;1677;49.576;10.990;2023-01-01T06:55:56;11.03;;;5.47;;
3329;SDS011;1677;49.576;10.990;2023-01-01T06:58:22;6.77;;;5.60;;
3329;SDS011;1677;49.576;10.990;2023-01-01T07:00:47;5.90;;;5.00;;
3329;SDS011;1677;49.576;10.990;2023-01-01T07:03:13;8.53;;;5.33;;
3329;SDS011;1677;49.576;10.990;2023-01-01T07:05:39;6.67;;;5.50;;
3329;SDS011;1677;49.576;10.990;2023-01-01T07:08:04;7.37;;;4.90;;
3329;SDS011;1677;49.576;10.990;2023-01-01T07:10:30;8.40;;;6.17;;
3329;SDS011;1677;49.576;10.990;2023-01-01T07:12:55;10.73;;;6.50;;
3329;SDS011;1677;49.576;10.990;2023-01-01T07:15:21;7.73;;;5.77;;
3329;SDS011;1677;49.576;10.990;2023-01-01T07:17:46;7.57;;;5.20;;
3329;SDS011;1677;49.576;10.990;2023-01-01T07:20:12;10.47;;;6.33;;
3329;SDS011;1677;49.576;10.990;2023-01-01T07:22:38;7.07;;;4.90;;
3329;SDS011;1677;49.576;10.990;2023-01-01T07:25:05;6.65;;;5.60;;
3329;SDS011;1677;49.576;10.990;2023-01-01T07:27:31;8.95;;;6.20;;
3329;SDS011;1677;49.576;10.990;2023-01-01T07:29:57;9.37;;;6.00;;
3329;SDS011;1677;49.576;10.990;2023-01-01T07:32:22;8.87;;;5.93;;
3329;SDS011;1677;49.576;10.990;2023-01-01T07:34:48;9.30;;;5.83;;
3329;SDS011;1677;49.576;10.990;2023-01-01T07:37:13;11.50;;;7.17;;
3329;SDS011;1677;49.576;10.990;2023-01-01T07:39:39;9.47;;;7.00;;
3329;SDS011;1677;49.576;10.990;2023-01-01T07:42:04;11.23;;;6.80;;
3329;SDS011;1677;49.576;10.990;2023-01-01T07:44:30;9.43;;;6.63;;
3329;SDS011;1677;49.576;10.990;2023-01-01T07:47:18;9.00;;;6.73;;
3329;SDS011;1677;49.576;10.990;2023-01-01T07:49:46;11.18;;;7.07;;
3329;SDS011;1677;49.576;10.990;2023-01-01T07:52:11;15.80;;;7.33;;
3329;SDS011;1677;49.576;10.990;2023-01-01T07:54:37;11.27;;;6.47;;
3329;SDS011;1677;49.576;10.990;2023-01-01T07:57:03;12.45;;;7.20;;
3329;SDS011;1677;49.576;10.990;2023-01-01T07:59:28;9.73;;;6.93;;
3329;SDS011;1677;49.576;10.990;2023-01-01T08:01:54;12.93;;;7.20;;
3329;SDS011;1677;49.576;10.990;2023-01-01T08:04:20;10.37;;;6.77;;
3329;SDS011;1677;49.576;10.990;2023-01-01T08:06:45;8.83;;;6.70;;
3329;SDS011;1677;49.576;10.990;2023-01-01T08:09:11;9.00;;;6.57;;
3329;SDS011;1677;49.576;10.990;2023-01-01T08:11:36;15.80;;;6.97;;
3329;SDS011;1677;49.576;10.990;2023-01-01T08:14:02;10.10;;;7.37;;
3329;SDS011;1677;49.576;10.990;2023-01-01T08:16:27;13.20;;;7.57;;
3329;SDS011;1677;49.576;10.990;2023-01-01T08:18:53;10.13;;;7.50;;
3329;SDS011;1677;49.576;10.990;2023-01-01T08:21:19;8.37;;;7.20;;
3329;SDS011;1677;49.576;10.990;2023-01-01T08:23:44;12.30;;;7.40;;
3329;SDS011;1677;49.576;10.990;2023-01-01T08:26:13;10.97;;;7.20;;
3329;SDS011;1677;49.576;10.990;2023-01-01T08:28:40;7.37;;;6.23;;
3329;SDS011;1677;49.576;10.990;2023-01-01T08:31:06;8.20;;;7.10;;
3329;SDS011;1677;49.576;10.990;2023-01-01T08:33:32;9.47;;;7.37;;
3329;SDS011;1677;49.576;10.990;2023-01-01T08:35:58;8.33;;;6.50;;
3329;SDS011;1677;49.576;10.990;2023-01-01T08:38:24;14.13;;;7.10;;
3329;SDS011;1677;49.576;10.990;2023-01-01T08:40:50;9.63;;;7.30;;
3329;SDS011;1677;49.576;10.990;2023-01-01T08:43:16;9.50;;;6.60;;
3329;SDS011;1677;49.576;10.990;2023-01-01T08:45:41;9.20;;;6.70;;
3329;SDS011;1677;49.576;10.990;2023-01-01T08:48:07;8.90;;;7.13;;
3329;SDS011;1677;49.576;10.990;2023-01-01T08:50:33;9.18;;;7.18;;
3329;SDS011;1677;49.576;10.990;2023-01-01T08:52:58;10.53;;;7.70;;
3329;SDS011;1677;49.576;10.990;2023-01-01T08:55:24;10.10;;;7.37;;
3329;SDS011;1677;49.576;10.990;2023-01-01T08:57:50;9.87;;;7.47;;
3329;SDS011;1677;49.576;10.990;2023-01-01T09:00:16;9.47;;;7.70;;
3329;SDS011;1677;49.576;10.990;2023-01-01T09:02:42;10.43;;;7.70;;
3329;SDS011;1677;49.576;10.990;2023-01-01T09:05:08;10.00;;;6.63;;
3329;SDS011;1677;49.576;10.990;2023-01-01T09:07:33;7.73;;;6.07;;
3329;SDS011;1677;49.576;10.990;2023-01-01T09:09:59;8.80;;;6.50;;
3329;SDS011;1677;49.576;10.990;2023-01-01T09:12:24;11.57;;;6.70;;
3329;SDS011;1677;49.576;10.990;2023-01-01T09:14:50;9.13;;;6.40;;
3329;SDS011;1677;49.576;10.990;2023-01-01T09:17:15;8.90;;;7.40;;
3329;SDS011;1677;49.576;10.990;2023-01-01T09:19:41;9.53;;;7.20;;
3329;SDS011;1677;49.576;10.990;2023-01-01T09:22:08;9.87;;;6.53;;
3329;SDS011;1677;49.576;10.990;2023-01-01T09:24:34;9.37;;;6.70;;
3329;SDS011;1677;49.576;10.990;2023-01-01T09:27:00;13.37;;;7.30;;
3329;SDS011;1677;49.576;10.990;2023-01-01T09:29:25;9.50;;;7.43;;
3329;SDS011;1677;49.576;10.990;2023-01-01T09:31:51;9.10;;;6.70;;
3329;SDS011;1677;49.576;10.990;2023-01-01T09:34:16;6.80;;;5.77;;
3329;SDS011;1677;49.576;10.990;2023-01-01T09:36:42;7.57;;;6.13;;
3329;SDS011;1677;49.576;10.990;2023-01-01T09:39:10;8.67;;;6.23;;
3329;SDS011;1677;49.576;10.990;2023-01-01T09:41:46;7.50;;;5.53;;
3329;SDS011;1677;49.576;10.990;2023-01-01T09:50:04;12.70;;;6.50;;
3329;SDS011;1677;49.576;10.990;2023-01-01T09:52:40;6.97;;;5.53;;
3329;SDS011;1677;49.576;10.990;2023-01-01T09:55:26;8.40;;;5.23;;
3329;SDS011;1677;49.576;10.990;2023-01-01T09:57:54;11.43;;;5.83;;
3329;SDS011;1677;49.576;10.990;2023-01-01T10:00:21;7.17;;;5.20;;
3329;SDS011;1677;49.576;10.990;2023-01-01T10:10:56;7.37;;;5.40;;
3329;SDS011;1677;49.576;10.990;2023-01-01T10:13:36;6.77;;;5.23;;
3329;SDS011;1677;49.576;10.990;2023-01-01T10:16:04;7.77;;;4.70;;
3329;SDS011;1677;49.576;10.990;2023-01-01T10:18:47;7.90;;;5.00;;
3329;SDS011;1677;49.576;10.990;2023-01-01T10:21:18;6.20;;;4.60;;
3329;SDS011;1677;49.576;10.990;2023-01-01T10:23:53;8.57;;;5.23;;
3329;SDS011;1677;49.576;10.990;2023-01-01T10:26:20;11.83;;;5.33;;
3329;SDS011;1677;49.576;10.990;2023-01-01T10:28:53;7.93;;;4.50;;
3329;SDS011;1677;49.576;10.990;2023-01-01T10:31:34;6.67;;;4.77;;
3329;SDS011;1677;49.576;10.990;2023-01-01T10:34:21;6.77;;;4.13;;
3329;SDS011;1677;49.576;10.990;2023-01-01T10:36:53;5.40;;;3.80;;
3329;SDS011;1677;49.576;10.990;2023-01-01T10:39:21;6.32;;;4.25;;
3329;SDS011;1677;49.576;10.990;2023-01-01T10:41:48;8.70;;;4.47;;
3329;SDS011;1677;49.576;10.990;2023-01-01T10:44:17;5.97;;;4.10;;
3329;SDS011;1677;49.576;10.990;2023-01-01T10:46:52;8.43;;;4.03;;
3329;SDS011;1677;49.576;10.990;2023-01-01T10:49:22;4.63;;;3.87;;
3329;SDS011;1677;49.576;10.990;2023-01-01T10:51:51;5.60;;;4.27;;
3329;SDS011;1677;49.576;10.990;2023-01-01T10:54:28;6.10;;;4.70;;
3329;SDS011;1677;49.576;10.990;2023-01-01T10:56:58;4.73;;;4.23;;
3329;SDS011;1677;49.576;10.990;2023-01-01T10:59:32;7.93;;;3.83;;
3329;SDS011;1677;49.576;10.990;2023-01-01T11:04:45;11.57;;;4.60;;
3329;SDS011;1677;49.576;10.990;2023-01-01T11:07:20;6.07;;;4.10;;
3329;SDS011;1677;49.576;10.990;2023-01-01T11:09:53;5.73;;;4.30;;
3329;SDS011;1677;49.576;10.990;2023-01-01T11:12:23;5.63;;;4.67;;
3329;SDS011;1677;49.576;10.990;2023-01-01T11:14:53;8.70;;;4.80;;
3329;SDS011;1677;49.576;10.990;2023-01-01T11:17:20;9.00;;;5.47;;
3329;SDS011;1677;49.576;10.990;2023-01-01T11:19:51;6.63;;;4.00;;
3329;SDS011;1677;49.576;10.990;2023-01-01T11:27:45;9.10;;;5.10;;
3329;SDS011;1677;49.576;10.990;2023-01-01T11:30:24;7.50;;;4.60;;
3329;SDS011;1677;49.576;10.990;2023-01-01T11:32:58;5.22;;;4.10;;
3329;SDS011;1677;49.576;10.990;2023-01-01T11:35:29;6.33;;;3.70;;
3329;SDS011;1677;49.576;10.990;2023-01-01T11:37:57;5.53;;;3.53;;
3329;SDS011;1677;49.576;10.990;2023-01-01T11:40:26;7.20;;;3.77;;
3329;SDS011;1677;49.576;10.990;2023-01-01T11:42:58;5.70;;;3.57;;
3329;SDS011;1677;49.576;10.990;2023-01-01T11:45:27;8.63;;;4.57;;
3329;SDS011;1677;49.576;10.990;2023-01-01T11:47:57;6.87;;;4.47;;
3329;SDS011;1677;49.576;10.990;2023-01-01T11:50:31;4.37;;;3.83;;
3329;SDS011;1677;49.576;10.990;2023-01-01T12:01:25;5.47;;;4.43;;
3329;SDS011;1677;49.576;10.990;2023-01-01T12:09:44;7.77;;;4.10;;
3329;SDS011;1677;49.576;10.990;2023-01-01T12:20:37;5.87;;;3.90;;
3329;SDS011;1677;49.576;10.990;2023-01-01T12:23:08;4.43;;;3.67;;
3329;SDS011;1677;49.576;10.990;2023-01-01T12:25:37;3.83;;;3.23;;
3329;SDS011;1677;49.576;10.990;2023-01-01T12:33:37;5.90;;;3.77;;
3329;SDS011;1677;49.576;10.990;2023-01-01T12:36:24;6.83;;;4.43;;
3329;SDS011;1677;49.576;10.990;2023-01-01T12:38:59;5.63;;;4.00;;
3329;SDS011;1677;49.576;10.990;2023-01-01T12:52:59;7.03;;;4.40;;
3329;SDS011;1677;49.576;10.990;2023-01-01T12:58:20;7.37;;;3.43;;
3329;SDS011;1677;49.576;10.990;2023-01-01T13:00:58;5.80;;;3.53;;
3329;SDS011;1677;49.576;10.990;2023-01-01T13:03:31;4.30;;;3.60;;
3329;SDS011;1677;49.576;10.990;2023-01-01T13:06:01;6.27;;;4.23;;
3329;SDS011;1677;49.576;10.990;2023-01-01T13:08:27;6.30;;;4.03;;
3329;SDS011;1677;49.576;10.990;2023-01-01T13:10:53;4.40;;;4.00;;
3329;SDS011;1677;49.576;10.990;2023-01-01T13:13:22;4.30;;;3.70;;
3329;SDS011;1677;49.576;10.990;2023-01-01T13:15:48;6.80;;;4.50;;
3329;SDS011;1677;49.576;10.990;2023-01-01T13:18:26;6.83;;;4.07;;
3329;SDS011;1677;49.576;10.990;2023-01-01T13:20:58;3.47;;;3.17;;
3329;SDS011;1677;49.576;10.990;2023-01-01T13:23:40;5.70;;;3.53;;
3329;SDS011;1677;49.576;10.990;2023-01-01T13:29:29;4.93;;;3.67;;
3329;SDS011;1677;49.576;10.990;2023-01-01T13:39:53;4.77;;;3.40;;
3329;SDS011;1677;49.576;10.990;2023-01-01T13:45:03;5.70;;;3.90;;
3329;SDS011;1677;49.576;10.990;2023-01-01T13:47:39;8.10;;;4.10;;
3329;SDS011;1677;49.576;10.990;2023-01-01T13:50:36;6.77;;;4.33;;
3329;SDS011;1677;49.576;10.990;2023-01-01T14:04:00;7.13;;;3.50;;
3329;SDS011;1677;49.576;10.990;2023-01-01T14:06:33;6.80;;;4.10;;
3329;SDS011;1677;49.576;10.990;2023-01-01T14:09:14;6.30;;;3.60;;
3329;SDS011;1677;49.576;10.990;2023-01-01T14:11:41;6.00;;;3.93;;
3329;SDS011;1677;49.576;10.990;2023-01-01T14:16:56;9.30;;;3.70;;
3329;SDS011;1677;49.576;10.990;2023-01-01T14:19:24;6.10;;;3.93;;
3329;SDS011;1677;49.576;10.990;2023-01-01T14:21:51;7.10;;;3.80;;
3329;SDS011;1677;49.576;10.990;2023-01-01T14:24:19;6.93;;;3.90;;
3329;SDS011;1677;49.576;10.990;2023-01-01T14:26:46;7.40;;;4.40;;
3329;SDS011;1677;49.576;10.990;2023-01-01T14:29:17;5.17;;;3.53;;
3329;SDS011;1677;49.576;10.990;2023-01-01T14:31:48;5.40;;;3.53;;
3329;SDS011;1677;49.576;10.990;2023-01-01T14:34:23;4.40;;;4.00;;
3329;SDS011;1677;49.576;10.990;2023-01-01T14:36:54;7.73;;;4.23;;
3329;SDS011;1677;49.576;10.990;2023-01-01T14:39:24;6.57;;;4.60;;
3329;SDS011;1677;49.576;10.990;2023-01-01T14:41:53;8.73;;;4.20;;
3329;SDS011;1677;49.576;10.990;2023-01-01T14:44:21;6.67;;;4.83;;
3329;SDS011;1677;49.576;10.990;2023-01-01T14:46:57;4.67;;;3.63;;
3329;SDS011;1677;49.576;10.990;2023-01-01T14:49:24;5.30;;;3.20;;
3329;SDS011;1677;49.576;10.990;2023-01-01T14:51:58;5.07;;;4.13;;
3329;SDS011;1677;49.576;10.990;2023-01-01T14:54:30;5.87;;;4.00;;
3329;SDS011;1677;49.576;10.990;2023-01-01T14:57:09;7.35;;;4.45;;
3329;SDS011;1677;49.576;10.990;2023-01-01T14:59:44;6.40;;;4.50;;
3329;SDS011;1677;49.576;10.990;2023-01-01T15:02:18;5.33;;;3.70;;
3329;SDS011;1677;49.576;10.990;2023-01-01T15:04:46;4.83;;;4.00;;
3329;SDS011;1677;49.576;10.990;2023-01-01T15:07:19;5.90;;;4.27;;
3329;SDS011;1677;49.576;10.990;2023-01-01T15:09:45;5.30;;;4.37;;
3329;SDS011;1677;49.576;10.990;2023-01-01T15:12:11;5.90;;;3.80;;
3329;SDS011;1677;49.576;10.990;2023-01-01T15:14:39;4.90;;;4.30;;
3329;SDS011;1677;49.576;10.990;2023-01-01T15:17:10;5.43;;;4.30;;
3329;SDS011;1677;49.576;10.990;2023-01-01T15:19:37;4.93;;;3.60;;
3329;SDS011;1677;49.576;10.990;2023-01-01T15:24:55;5.80;;;4.20;;
3329;SDS011;1677;49.576;10.990;2023-01-01T15:27:29;7.20;;;4.10;;
3329;SDS011;1677;49.576;10.990;2023-01-01T15:29:56;9.97;;;4.27;;
3329;SDS011;1677;49.576;10.990;2023-01-01T15:32:26;7.93;;;4.50;;
3329;SDS011;1677;49.576;10.990;2023-01-01T15:34:56;4.40;;;3.90;;
3329;SDS011;1677;49.576;10.990;2023-01-01T15:37:46;5.40;;;4.17;;
3329;SDS011;1677;49.576;10.990;2023-01-01T15:42:41;8.10;;;4.20;;
3329;SDS011;1677;49.576;10.990;2023-01-01T15:47:41;5.40;;;4.20;;
3329;SDS011;1677;49.576;10.990;2023-01-01T15:50:18;6.37;;;4.70;;
3329;SDS011;1677;49.576;10.990;2023-01-01T15:52:46;10.03;;;4.93;;
3329;SDS011;1677;49.576;10.990;2023-01-01T15:55:15;5.20;;;4.33;;
3329;SDS011;1677;49.576;10.990;2023-01-01T15:57:48;7.40;;;5.07;;
3329;SDS011;1677;49.576;10.990;2023-01-01T16:02:53;7.87;;;5.17;;
3329;SDS011;1677;49.576;10.990;2023-01-01T16:05:22;9.73;;;4.97;;
3329;SDS011;1677;49.576;10.990;2023-01-01T16:07:59;7.70;;;4.47;;
3329;SDS011;1677;49.576;10.990;2023-01-01T16:10:29;6.17;;;4.63;;
3329;SDS011;1677;49.576;10.990;2023-01-01T16:12:56;7.70;;;4.83;;
3329;SDS011;1677;49.576;10.990;2023-01-01T16:15:22;6.67;;;5.57;;
3329;SDS011;1677;49.576;10.990;2023-01-01T16:17:48;13.30;;;6.07;;
3329;SDS011;1677;49.576;10.990;2023-01-01T16:20:14;6.43;;;5.07;;
3329;SDS011;1677;49.576;10.990;2023-01-01T16:22:41;13.23;;;8.10;;
3329;SDS011;1677;49.576;10.990;2023-01-01T16:25:14;10.63;;;5.70;;
3329;SDS011;1677;49.576;10.990;2023-01-01T16:27:41;9.93;;;5.40;;
3329;SDS011;1677;49.576;10.990;2023-01-01T16:30:07;11.40;;;5.27;;
3329;SDS011;1677;49.576;10.990;2023-01-01T16:32:33;6.70;;;5.77;;
3329;SDS011;1677;49.576;10.990;2023-01-01T16:34:58;11.17;;;6.20;;
3329;SDS011;1677;49.576;10.990;2023-01-01T16:37:24;12.23;;;6.40;;
3329;SDS011;1677;49.576;10.990;2023-01-01T16:39:49;7.77;;;5.77;;
3329;SDS011;1677;49.576;10.990;2023-01-01T16:42:15;6.97;;;5.47;;
3329;SDS011;1677;49.576;10.990;2023-01-01T16:44:41;8.20;;;5.50;;
3329;SDS011;1677;49.576;10.990;2023-01-01T16:47:06;9.63;;;5.60;;
3329;SDS011;1677;49.576;10.990;2023-01-01T16:49:32;6.23;;;5.23;;
3329;SDS011;1677;49.576;10.990;2023-01-01T16:51:58;6.40;;;4.97;;
3329;SDS011;1677;49.576;10.990;2023-01-01T16:54:23;7.70;;;5.00;;
3329;SDS011;1677;49.576;10.990;2023-01-01T16:56:49;8.53;;;5.90;;
3329;SDS011;1677;49.576;10.990;2023-01-01T16:59:15;7.20;;;5.37;;
3329;SDS011;1677;49.576;10.990;2023-01-01T17:01:40;10.77;;;7.63;;
3329;SDS011;1677;49.576;10.990;2023-01-01T17:04:06;7.83;;;5.47;;
3329;SDS011;1677;49.576;10.990;2023-01-01T17:06:32;9.70;;;5.63;;
3329;SDS011;1677;49.576;10.990;2023-01-01T17:08:58;6.40;;;5.47;;
3329;SDS011;1677;49.576;10.990;2023-01-01T17:11:24;8.00;;;5.23;;